sensor_id;sensor_type;location;lat;lon;timestamp;pressure;altitude;pressure_sealevel;temperature;humidity
42705;BME280;28342;42.594;23.414;2023-04-27T00:01:16;94146.50;;;8.26;58.33
42705;BME280;28342;42.594;23.414;2023-04-27T00:03:42;94165.47;;;8.42;58.49
42705;BME280;28342;42.594;23.414;2023-04-27T00:06:09;94158.75;;;8.36;58.35
42705;BME280;28342;42.594;23.414;2023-04-27T00:08:35;94166.19;;;8.34;58.49
42705;BME280;28342;42.594;23.414;2023-04-27T00:11:04;94159.38;;;8.19;58.93
42705;BME280;28342;42.594;23.414;2023-04-27T00:13:30;94177.44;;;8.26;57.59
42705;BME280;28342;42.594;23.414;2023-04-27T00:15:55;94176.75;;;8.34;57.72
42705;BME280;28342;42.594;23.414;2023-04-27T00:18:21;94164.06;;;8.22;58.52
42705;BME280;28342;42.594;23.414;2023-04-27T00:20:46;94171.06;;;8.27;57.67
42705;BME280;28342;42.594;23.414;2023-04-27T00:23:12;94170.13;;;8.23;57.82
42705;BME280;28342;42.594;23.414;2023-04-27T00:25:37;94164.66;;;8.19;58.68
42705;BME280;28342;42.594;23.414;2023-04-27T00:28:03;94167.38;;;8.28;58.37
42705;BME280;28342;42.594;23.414;2023-04-27T00:30:28;94166.69;;;8.22;58.15
42705;BME280;28342;42.594;23.414;2023-04-27T00:32:54;94170.72;;;8.20;58.00
42705;BME280;28342;42.594;23.414;2023-04-27T00:35:19;94158.59;;;8.19;58.06
42705;BME280;28342;42.594;23.414;2023-04-27T00:37:45;94174.38;;;8.10;57.79
42705;BME280;28342;42.594;23.414;2023-04-27T00:40:11;94177.13;;;8.05;59.05
42705;BME280;28342;42.594;23.414;2023-04-27T00:42:36;94177.78;;;8.10;57.50
42705;BME280;28342;42.594;23.414;2023-04-27T00:45:03;94180.34;;;8.16;57.57
42705;BME280;28342;42.594;23.414;2023-04-27T00:47:31;94182.69;;;8.17;57.83
42705;BME280;28342;42.594;23.414;2023-04-27T00:49:57;94162.41;;;7.90;57.26
42705;BME280;28342;42.594;23.414;2023-04-27T00:52:22;94174.97;;;8.07;57.78
42705;BME280;28342;42.594;23.414;2023-04-27T00:54:52;94173.94;;;7.94;58.08
42705;BME280;28342;42.594;23.414;2023-04-27T00:57:18;94177.63;;;8.07;57.67
42705;BME280;28342;42.594;23.414;2023-04-27T00:59:43;94184.88;;;8.01;57.37
42705;BME280;28342;42.594;23.414;2023-04-27T01:02:10;94169.03;;;8.01;56.49
42705;BME280;28342;42.594;23.414;2023-04-27T01:04:36;94184.28;;;8.04;56.29
42705;BME280;28342;42.594;23.414;2023-04-27T01:07:02;94185.88;;;7.92;56.73
42705;BME280;28342;42.594;23.414;2023-04-27T01:09:28;94180.22;;;7.85;57.33
42705;BME280;28342;42.594;23.414;2023-04-27T01:11:53;94190.81;;;7.71;58.04
42705;BME280;28342;42.594;23.414;2023-04-27T01:14:19;94200.78;;;7.74;57.64
42705;BME280;28342;42.594;23.414;2023-04-27T01:16:44;94189.44;;;7.60;57.79
42705;BME280;28342;42.594;23.414;2023-04-27T01:19:10;94196.88;;;7.58;58.49
42705;BME280;28342;42.594;23.414;2023-04-27T01:21:36;94180.47;;;7.33;58.31
42705;BME280;28342;42.594;23.414;2023-04-27T01:24:05;94189.75;;;7.44;58.38
42705;BME280;28342;42.594;23.414;2023-04-27T01:26:31;94187.22;;;7.39;58.35
42705;BME280;28342;42.594;23.414;2023-04-27T01:28:57;94185.75;;;7.33;59.13
42705;BME280;28342;42.594;23.414;2023-04-27T01:31:22;94190.25;;;7.33;58.60
42705;BME280;28342;42.594;23.414;2023-04-27T01:33:48;94196.59;;;7.45;58.56
42705;BME280;28342;42.594;23.414;2023-04-27T01:36:13;94199.47;;;7.35;58.58
42705;BME280;28342;42.594;23.414;2023-04-27T01:38:39;94193.78;;;7.28;58.46
42705;BME280;28342;42.594;23.414;2023-04-27T01:41:05;94201.97;;;7.13;58.67
42705;BME280;28342;42.594;23.414;2023-04-27T01:43:33;94200.13;;;7.27;59.09
42705;BME280;28342;42.594;23.414;2023-04-27T01:46:09;94199.53;;;7.30;58.75
42705;BME280;28342;42.594;23.414;2023-04-27T01:48:35;94210.78;;;7.22;58.13
42705;BME280;28342;42.594;23.414;2023-04-27T01:51:01;94200.59;;;7.15;58.23
42705;BME280;28342;42.594;23.414;2023-04-27T01:53:27;94199.22;;;7.18;57.84
42705;BME280;28342;42.594;23.414;2023-04-27T01:55:52;94201.88;;;7.18;58.18
42705;BME280;28342;42.594;23.414;2023-04-27T01:58:18;94199.03;;;7.01;58.75
42705;BME280;28342;42.594;23.414;2023-04-27T02:00:43;94205.09;;;7.15;58.91
42705;BME280;28342;42.594;23.414;2023-04-27T02:03:09;94190.66;;;7.12;58.34
42705;BME280;28342;42.594;23.414;2023-04-27T02:05:34;94216.84;;;7.23;58.23
42705;BME280;28342;42.594;23.414;2023-04-27T02:08:00;94218.97;;;7.07;58.78
42705;BME280;28342;42.594;23.414;2023-04-27T02:10:25;94217.97;;;7.03;58.46
42705;BME280;28342;42.594;23.414;2023-04-27T02:12:51;94205.38;;;7.00;58.25
42705;BME280;28342;42.594;23.414;2023-04-27T02:15:17;94206.56;;;6.94;58.75
42705;BME280;28342;42.594;23.414;2023-04-27T02:17:43;94215.03;;;7.04;59.09
42705;BME280;28342;42.594;23.414;2023-04-27T02:20:10;94216.81;;;7.09;58.82
42705;BME280;28342;42.594;23.414;2023-04-27T02:22:40;94189.03;;;6.84;59.70
42705;BME280;28342;42.594;23.414;2023-04-27T02:25:08;94214.84;;;7.01;58.59
42705;BME280;28342;42.594;23.414;2023-04-27T02:27:36;94216.19;;;6.84;60.07
42705;BME280;28342;42.594;23.414;2023-04-27T02:30:06;94218.97;;;7.07;57.88
42705;BME280;28342;42.594;23.414;2023-04-27T02:32:32;94205.78;;;7.07;57.73
42705;BME280;28342;42.594;23.414;2023-04-27T02:34:57;94194.44;;;6.93;56.90
42705;BME280;28342;42.594;23.414;2023-04-27T02:37:23;94212.69;;;7.03;58.01
42705;BME280;28342;42.594;23.414;2023-04-27T02:39:48;94215.34;;;7.03;57.53
42705;BME280;28342;42.594;23.414;2023-04-27T02:42:14;94210.47;;;6.96;58.35
42705;BME280;28342;42.594;23.414;2023-04-27T02:44:40;94217.16;;;6.88;59.16
42705;BME280;28342;42.594;23.414;2023-04-27T02:47:06;94206.22;;;6.81;58.62
42705;BME280;28342;42.594;23.414;2023-04-27T02:49:31;94223.75;;;7.05;57.71
42705;BME280;28342;42.594;23.414;2023-04-27T02:51:57;94216.41;;;7.02;57.61
42705;BME280;28342;42.594;23.414;2023-04-27T02:54:22;94218.75;;;6.89;58.65
42705;BME280;28342;42.594;23.414;2023-04-27T02:56:47;94218.66;;;6.95;58.17
42705;BME280;28342;42.594;23.414;2023-04-27T02:59:13;94227.97;;;7.06;57.68
42705;BME280;28342;42.594;23.414;2023-04-27T03:01:38;94221.41;;;6.89;57.98
42705;BME280;28342;42.594;23.414;2023-04-27T03:04:04;94212.69;;;6.89;57.62
42705;BME280;28342;42.594;23.414;2023-04-27T03:06:29;94227.53;;;6.99;59.55
42705;BME280;28342;42.594;23.414;2023-04-27T03:08:55;94237.44;;;7.07;58.03
42705;BME280;28342;42.594;23.414;2023-04-27T03:11:20;94234.03;;;7.06;57.82
42705;BME280;28342;42.594;23.414;2023-04-27T03:13:46;94234.56;;;7.03;58.63
42705;BME280;28342;42.594;23.414;2023-04-27T03:16:11;94242.63;;;7.12;57.81
42705;BME280;28342;42.594;23.414;2023-04-27T03:18:37;94231.09;;;7.08;59.22
42705;BME280;28342;42.594;23.414;2023-04-27T03:21:12;94244.28;;;7.08;58.09
42705;BME280;28342;42.594;23.414;2023-04-27T03:23:38;94235.28;;;7.09;58.26
42705;BME280;28342;42.594;23.414;2023-04-27T03:26:11;94242.50;;;6.89;58.18
42705;BME280;28342;42.594;23.414;2023-04-27T03:28:38;94243.72;;;6.78;58.59
42705;BME280;28342;42.594;23.414;2023-04-27T03:31:05;94231.63;;;6.77;57.73
42705;BME280;28342;42.594;23.414;2023-04-27T03:33:31;94245.47;;;6.83;58.16
42705;BME280;28342;42.594;23.414;2023-04-27T03:35:57;94252.03;;;6.85;58.80
42705;BME280;28342;42.594;23.414;2023-04-27T03:38:23;94255.47;;;7.00;57.82
42705;BME280;28342;42.594;23.414;2023-04-27T03:40:49;94240.78;;;6.80;58.48
42705;BME280;28342;42.594;23.414;2023-04-27T03:43:15;94254.06;;;6.88;58.40
42705;BME280;28342;42.594;23.414;2023-04-27T03:45:41;94259.47;;;6.97;58.05
42705;BME280;28342;42.594;23.414;2023-04-27T03:48:06;94236.06;;;6.63;58.53
42705;BME280;28342;42.594;23.414;2023-04-27T03:50:31;94265.41;;;6.89;58.62
42705;BME280;28342;42.594;23.414;2023-04-27T03:52:57;94260.13;;;6.89;57.97
42705;BME280;28342;42.594;23.414;2023-04-27T03:55:22;94258.84;;;6.86;58.67
42705;BME280;28342;42.594;23.414;2023-04-27T03:57:48;94275.16;;;6.88;58.51
42705;BME280;28342;42.594;23.414;2023-04-27T04:00:13;94273.06;;;6.91;59.34
42705;BME280;28342;42.594;23.414;2023-04-27T04:02:40;94275.94;;;6.89;58.87
42705;BME280;28342;42.594;23.414;2023-04-27T04:05:06;94283.38;;;6.87;58.91
42705;BME280;28342;42.594;23.414;2023-04-27T04:07:33;94290.75;;;7.04;58.97
42705;BME280;28342;42.594;23.414;2023-04-27T04:09:58;94282.63;;;7.00;56.96
42705;BME280;28342;42.594;23.414;2023-04-27T04:12:24;94275.44;;;7.06;58.08
42705;BME280;28342;42.594;23.414;2023-04-27T04:14:49;94293.91;;;7.06;58.93
42705;BME280;28342;42.594;23.414;2023-04-27T04:17:15;94295.38;;;7.12;57.32
42705;BME280;28342;42.594;23.414;2023-04-27T04:19:41;94291.66;;;7.13;57.09
42705;BME280;28342;42.594;23.414;2023-04-27T04:22:08;94282.28;;;7.07;57.75
42705;BME280;28342;42.594;23.414;2023-04-27T04:24:33;94277.56;;;7.04;56.58
42705;BME280;28342;42.594;23.414;2023-04-27T04:26:59;94294.34;;;6.94;60.05
42705;BME280;28342;42.594;23.414;2023-04-27T04:29:24;94306.69;;;7.12;57.71
42705;BME280;28342;42.594;23.414;2023-04-27T04:31:50;94299.56;;;7.13;57.00
42705;BME280;28342;42.594;23.414;2023-04-27T04:34:16;94308.56;;;7.12;58.44
42705;BME280;28342;42.594;23.414;2023-04-27T04:36:41;94310.03;;;7.18;57.22
42705;BME280;28342;42.594;23.414;2023-04-27T04:39:07;94296.63;;;7.14;57.98
42705;BME280;28342;42.594;23.414;2023-04-27T04:41:32;94299.06;;;7.11;57.29
42705;BME280;28342;42.594;23.414;2023-04-27T04:43:58;94306.31;;;7.19;56.96
42705;BME280;28342;42.594;23.414;2023-04-27T04:46:24;94311.41;;;7.29;57.57
42705;BME280;28342;42.594;23.414;2023-04-27T04:48:50;94320.00;;;7.35;57.02
42705;BME280;28342;42.594;23.414;2023-04-27T04:51:16;94324.03;;;7.32;57.51
42705;BME280;28342;42.594;23.414;2023-04-27T04:53:41;94334.69;;;7.27;57.19
42705;BME280;28342;42.594;23.414;2023-04-27T04:56:11;94328.81;;;7.30;56.66
42705;BME280;28342;42.594;23.414;2023-04-27T04:58:38;94338.28;;;7.31;58.36
42705;BME280;28342;42.594;23.414;2023-04-27T05:01:04;94341.50;;;7.28;56.85
42705;BME280;28342;42.594;23.414;2023-04-27T05:03:29;94346.03;;;7.41;56.47
42705;BME280;28342;42.594;23.414;2023-04-27T05:05:55;94346.53;;;7.43;56.75
42705;BME280;28342;42.594;23.414;2023-04-27T05:08:21;94354.25;;;7.40;56.33
42705;BME280;28342;42.594;23.414;2023-04-27T05:10:50;94354.66;;;7.47;56.84
42705;BME280;28342;42.594;23.414;2023-04-27T05:13:15;94346.44;;;7.48;56.28
42705;BME280;28342;42.594;23.414;2023-04-27T05:15:41;94331.78;;;7.42;54.99
42705;BME280;28342;42.594;23.414;2023-04-27T05:18:06;94332.34;;;7.39;55.57
42705;BME280;28342;42.594;23.414;2023-04-27T05:20:36;94353.69;;;7.57;55.63
42705;BME280;28342;42.594;23.414;2023-04-27T05:23:01;94347.72;;;7.51;55.95
42705;BME280;28342;42.594;23.414;2023-04-27T05:25:30;94351.72;;;7.62;55.63
42705;BME280;28342;42.594;23.414;2023-04-27T05:27:56;94342.53;;;7.60;55.62
42705;BME280;28342;42.594;23.414;2023-04-27T05:30:21;94376.00;;;7.78;55.96
42705;BME280;28342;42.594;23.414;2023-04-27T05:32:47;94368.00;;;7.83;54.63
42705;BME280;28342;42.594;23.414;2023-04-27T05:35:12;94358.41;;;7.87;54.67
42705;BME280;28342;42.594;23.414;2023-04-27T05:37:38;94361.66;;;7.98;55.34
42705;BME280;28342;42.594;23.414;2023-04-27T05:40:03;94368.38;;;7.90;55.11
42705;BME280;28342;42.594;23.414;2023-04-27T05:42:34;94370.53;;;7.88;54.99
42705;BME280;28342;42.594;23.414;2023-04-27T05:45:00;94361.25;;;7.91;54.00
42705;BME280;28342;42.594;23.414;2023-04-27T05:47:25;94357.44;;;7.83;53.81
42705;BME280;28342;42.594;23.414;2023-04-27T05:49:51;94353.31;;;7.77;54.60
42705;BME280;28342;42.594;23.414;2023-04-27T05:52:20;94359.19;;;7.74;55.47
42705;BME280;28342;42.594;23.414;2023-04-27T05:54:46;94365.66;;;7.95;55.44
42705;BME280;28342;42.594;23.414;2023-04-27T05:57:12;94364.28;;;7.98;53.81
42705;BME280;28342;42.594;23.414;2023-04-27T05:59:38;94361.72;;;8.06;55.08
42705;BME280;28342;42.594;23.414;2023-04-27T06:02:03;94371.03;;;8.18;55.79
42705;BME280;28342;42.594;23.414;2023-04-27T06:04:29;94367.44;;;8.14;54.25
42705;BME280;28342;42.594;23.414;2023-04-27T06:06:56;94342.75;;;8.04;55.77
42705;BME280;28342;42.594;23.414;2023-04-27T06:09:22;94371.22;;;8.21;54.48
42705;BME280;28342;42.594;23.414;2023-04-27T06:11:47;94361.16;;;8.09;55.62
42705;BME280;28342;42.594;23.414;2023-04-27T06:14:13;94377.91;;;8.46;55.28
42705;BME280;28342;42.594;23.414;2023-04-27T06:16:38;94369.19;;;8.46;52.91
42705;BME280;28342;42.594;23.414;2023-04-27T06:19:05;94378.97;;;8.45;54.72
42705;BME280;28342;42.594;23.414;2023-04-27T06:21:34;94365.28;;;8.43;53.74
42705;BME280;28342;42.594;23.414;2023-04-27T06:24:00;94358.41;;;8.42;53.27
42705;BME280;28342;42.594;23.414;2023-04-27T06:26:26;94356.81;;;8.55;53.70
42705;BME280;28342;42.594;23.414;2023-04-27T06:28:53;94363.63;;;8.69;53.84
42705;BME280;28342;42.594;23.414;2023-04-27T06:31:18;94355.91;;;8.73;52.64
42705;BME280;28342;42.594;23.414;2023-04-27T06:33:44;94358.56;;;8.73;52.16
42705;BME280;28342;42.594;23.414;2023-04-27T06:36:10;94368.09;;;8.83;54.54
42705;BME280;28342;42.594;23.414;2023-04-27T06:38:35;94358.47;;;8.87;52.59
42705;BME280;28342;42.594;23.414;2023-04-27T06:41:01;94370.53;;;9.15;53.35
42705;BME280;28342;42.594;23.414;2023-04-27T06:43:28;94374.63;;;9.21;54.51
42705;BME280;28342;42.594;23.414;2023-04-27T06:45:54;94372.22;;;9.34;53.85
42705;BME280;28342;42.594;23.414;2023-04-27T06:48:19;94369.56;;;9.34;51.45
42705;BME280;28342;42.594;23.414;2023-04-27T06:50:45;94362.84;;;9.27;53.30
42705;BME280;28342;42.594;23.414;2023-04-27T06:53:11;94374.75;;;9.39;52.00
42705;BME280;28342;42.594;23.414;2023-04-27T11:23:39;94315.31;;;15.93;35.51
42705;BME280;28342;42.594;23.414;2023-04-27T11:26:15;94313.31;;;16.21;35.30
42705;BME280;28342;42.594;23.414;2023-04-27T11:29:01;94301.09;;;15.89;36.02
42705;BME280;28342;42.594;23.414;2023-04-27T11:31:48;94318.34;;;16.07;33.44
42705;BME280;28342;42.594;23.414;2023-04-27T11:34:23;94334.41;;;16.07;34.46
42705;BME280;28342;42.594;23.414;2023-04-27T11:37:19;94301.25;;;15.36;37.54
42705;BME280;28342;42.594;23.414;2023-04-27T11:39:45;94317.69;;;15.50;36.02
42705;BME280;28342;42.594;23.414;2023-04-27T11:44:55;94322.63;;;15.36;36.43
42705;BME280;28342;42.594;23.414;2023-04-27T11:47:22;94310.44;;;15.51;36.30
42705;BME280;28342;42.594;23.414;2023-04-27T11:49:49;94325.66;;;15.63;35.82
42705;BME280;28342;42.594;23.414;2023-04-27T11:52:16;94335.50;;;15.74;35.53
42705;BME280;28342;42.594;23.414;2023-04-27T11:54:53;94337.13;;;15.35;35.84
42705;BME280;28342;42.594;23.414;2023-04-27T11:57:32;94328.16;;;14.87;36.82
42705;BME280;28342;42.594;23.414;2023-04-27T11:59:59;94320.91;;;14.88;35.92
42705;BME280;28342;42.594;23.414;2023-04-27T12:02:26;94339.81;;;14.95;36.49
42705;BME280;28342;42.594;23.414;2023-04-27T12:04:52;94319.38;;;14.75;37.70
42705;BME280;28342;42.594;23.414;2023-04-27T12:07:18;94336.50;;;14.86;36.48
42705;BME280;28342;42.594;23.414;2023-04-27T12:09:43;94322.22;;;14.94;37.40
42705;BME280;28342;42.594;23.414;2023-04-27T12:12:10;94332.91;;;14.94;35.87
42705;BME280;28342;42.594;23.414;2023-04-27T12:14:35;94332.31;;;15.01;38.38
42705;BME280;28342;42.594;23.414;2023-04-27T12:17:01;94332.00;;;15.02;37.20
42705;BME280;28342;42.594;23.414;2023-04-27T12:19:26;94343.59;;;14.94;37.50
42705;BME280;28342;42.594;23.414;2023-04-27T12:21:52;94338.72;;;14.84;35.98
42705;BME280;28342;42.594;23.414;2023-04-27T12:24:19;94343.19;;;14.80;35.81
42705;BME280;28342;42.594;23.414;2023-04-27T12:26:46;94348.56;;;14.55;36.72
42705;BME280;28342;42.594;23.414;2023-04-27T12:29:12;94346.97;;;14.79;37.36
42705;BME280;28342;42.594;23.414;2023-04-27T12:31:38;94352.31;;;14.42;36.58
42705;BME280;28342;42.594;23.414;2023-04-27T12:34:03;94352.78;;;14.56;38.01
42705;BME280;28342;42.594;23.414;2023-04-27T12:36:29;94340.66;;;14.47;36.19
42705;BME280;28342;42.594;23.414;2023-04-27T12:39:12;94343.00;;;14.48;37.76
42705;BME280;28342;42.594;23.414;2023-04-27T12:41:38;94348.31;;;14.36;37.29
42705;BME280;28342;42.594;23.414;2023-04-27T12:44:03;94345.78;;;14.27;37.97
42705;BME280;28342;42.594;23.414;2023-04-27T12:46:29;94355.22;;;14.13;36.53
42705;BME280;28342;42.594;23.414;2023-04-27T12:48:55;94339.75;;;14.18;36.18
42705;BME280;28342;42.594;23.414;2023-04-27T12:51:21;94357.00;;;14.33;36.03
42705;BME280;28342;42.594;23.414;2023-04-27T12:53:47;94341.88;;;14.13;36.37
42705;BME280;28342;42.594;23.414;2023-04-27T12:56:12;94341.00;;;14.45;37.95
42705;BME280;28342;42.594;23.414;2023-04-27T12:58:38;94343.69;;;14.45;35.63
42705;BME280;28342;42.594;23.414;2023-04-27T13:01:04;94347.66;;;14.27;36.60
42705;BME280;28342;42.594;23.414;2023-04-27T13:03:32;94338.75;;;14.23;37.92
42705;BME280;28342;42.594;23.414;2023-04-27T13:05:58;94349.22;;;14.52;38.37
42705;BME280;28342;42.594;23.414;2023-04-27T13:08:23;94344.28;;;14.79;38.36
42705;BME280;28342;42.594;23.414;2023-04-27T13:10:49;94341.09;;;15.13;37.88
42705;BME280;28342;42.594;23.414;2023-04-27T13:13:14;94339.75;;;15.19;37.97
42705;BME280;28342;42.594;23.414;2023-04-27T13:15:40;94335.44;;;15.31;37.61
42705;BME280;28342;42.594;23.414;2023-04-27T13:18:05;94337.66;;;15.41;37.21
42705;BME280;28342;42.594;23.414;2023-04-27T13:20:31;94351.88;;;15.45;34.69
42705;BME280;28342;42.594;23.414;2023-04-27T13:22:56;94339.84;;;15.51;37.02
42705;BME280;28342;42.594;23.414;2023-04-27T13:25:22;94343.72;;;15.81;37.39
42705;BME280;28342;42.594;23.414;2023-04-27T13:27:47;94345.03;;;15.60;35.29
42705;BME280;28342;42.594;23.414;2023-04-27T13:30:13;94340.59;;;15.23;35.36
42705;BME280;28342;42.594;23.414;2023-04-27T13:32:38;94338.06;;;15.15;36.67
42705;BME280;28342;42.594;23.414;2023-04-27T13:35:04;94339.44;;;15.37;35.91
42705;BME280;28342;42.594;23.414;2023-04-27T13:37:31;94310.81;;;15.09;35.54
42705;BME280;28342;42.594;23.414;2023-04-27T13:39:57;94333.31;;;15.36;35.84
42705;BME280;28342;42.594;23.414;2023-04-27T13:42:22;94338.16;;;15.46;37.96
42705;BME280;28342;42.594;23.414;2023-04-27T13:44:53;94322.41;;;15.57;35.02
42705;BME280;28342;42.594;23.414;2023-04-27T13:47:19;94337.41;;;15.74;34.28
42705;BME280;28342;42.594;23.414;2023-04-27T13:49:45;94342.66;;;15.70;34.14
42705;BME280;28342;42.594;23.414;2023-04-27T13:52:10;94341.97;;;15.45;34.87
42705;BME280;28342;42.594;23.414;2023-04-27T13:54:36;94331.28;;;15.17;36.67
42705;BME280;28342;42.594;23.414;2023-04-27T13:57:02;94342.41;;;15.19;35.58
42705;BME280;28342;42.594;23.414;2023-04-27T13:59:28;94343.94;;;15.33;37.64
42705;BME280;28342;42.594;23.414;2023-04-27T14:01:54;94343.25;;;15.36;37.50
42705;BME280;28342;42.594;23.414;2023-04-27T14:04:19;94343.00;;;15.01;36.47
42705;BME280;28342;42.594;23.414;2023-04-27T14:06:45;94341.84;;;14.86;36.24
42705;BME280;28342;42.594;23.414;2023-04-27T14:09:10;94315.19;;;14.61;36.54
42705;BME280;28342;42.594;23.414;2023-04-27T14:11:36;94343.53;;;14.66;36.02
42705;BME280;28342;42.594;23.414;2023-04-27T14:14:01;94353.22;;;14.58;34.96
42705;BME280;28342;42.594;23.414;2023-04-27T14:16:27;94349.53;;;14.39;35.64
42705;BME280;28342;42.594;23.414;2023-04-27T14:18:53;94342.53;;;14.10;36.72
42705;BME280;28342;42.594;23.414;2023-04-27T14:21:20;94349.16;;;13.79;36.45
42705;BME280;28342;42.594;23.414;2023-04-27T14:23:45;94345.34;;;13.68;36.96
42705;BME280;28342;42.594;23.414;2023-04-27T14:26:10;94343.75;;;13.55;37.07
42705;BME280;28342;42.594;23.414;2023-04-27T14:28:36;94367.13;;;13.70;37.31
42705;BME280;28342;42.594;23.414;2023-04-27T14:31:01;94359.22;;;13.61;38.19
42705;BME280;28342;42.594;23.414;2023-04-27T14:33:27;94357.47;;;13.65;37.43
42705;BME280;28342;42.594;23.414;2023-04-27T14:35:53;94374.41;;;13.61;37.29
42705;BME280;28342;42.594;23.414;2023-04-27T14:38:18;94369.69;;;13.33;39.78
42705;BME280;28342;42.594;23.414;2023-04-27T14:40:43;94378.63;;;13.50;38.19
42705;BME280;28342;42.594;23.414;2023-04-27T14:43:09;94376.63;;;13.59;37.96
42705;BME280;28342;42.594;23.414;2023-04-27T14:45:35;94335.78;;;13.22;38.80
42705;BME280;28342;42.594;23.414;2023-04-27T14:48:00;94385.06;;;13.61;37.70
42705;BME280;28342;42.594;23.414;2023-04-27T14:50:26;94386.34;;;13.63;37.06
42705;BME280;28342;42.594;23.414;2023-04-27T14:52:52;94372.50;;;13.49;38.88
42705;BME280;28342;42.594;23.414;2023-04-27T14:55:22;94382.69;;;13.68;37.92
42705;BME280;28342;42.594;23.414;2023-04-27T14:57:49;94384.00;;;13.74;38.45
42705;BME280;28342;42.594;23.414;2023-04-27T15:00:15;94379.47;;;13.74;37.92
42705;BME280;28342;42.594;23.414;2023-04-27T15:02:40;94384.19;;;14.02;38.28
42705;BME280;28342;42.594;23.414;2023-04-27T15:05:06;94379.22;;;14.13;38.15
42705;BME280;28342;42.594;23.414;2023-04-27T15:07:32;94378.13;;;14.26;36.66
42705;BME280;28342;42.594;23.414;2023-04-27T15:09:57;94383.63;;;14.09;36.53
42705;BME280;28342;42.594;23.414;2023-04-27T15:12:23;94390.31;;;14.02;35.84
42705;BME280;28342;42.594;23.414;2023-04-27T15:14:48;94394.66;;;14.19;36.93
42705;BME280;28342;42.594;23.414;2023-04-27T15:17:15;94387.69;;;14.27;37.03
42705;BME280;28342;42.594;23.414;2023-04-27T15:19:41;94392.81;;;14.44;37.41
42705;BME280;28342;42.594;23.414;2023-04-27T15:22:06;94379.22;;;14.37;36.65
42705;BME280;28342;42.594;23.414;2023-04-27T15:24:32;94392.56;;;14.25;36.13
42705;BME280;28342;42.594;23.414;2023-04-27T15:26:57;94395.53;;;13.99;36.11
42705;BME280;28342;42.594;23.414;2023-04-27T15:29:24;94394.84;;;14.02;36.57
42705;BME280;28342;42.594;23.414;2023-04-27T15:31:49;94411.03;;;13.85;36.92
42705;BME280;28342;42.594;23.414;2023-04-27T15:34:15;94405.66;;;13.72;36.46
42705;BME280;28342;42.594;23.414;2023-04-27T15:36:40;94416.25;;;13.81;37.22
42705;BME280;28342;42.594;23.414;2023-04-27T15:39:09;94408.75;;;13.62;36.88
42705;BME280;28342;42.594;23.414;2023-04-27T15:41:34;94425.38;;;13.59;38.09
42705;BME280;28342;42.594;23.414;2023-04-27T15:44:00;94419.88;;;13.43;37.76
42705;BME280;28342;42.594;23.414;2023-04-27T15:46:26;94408.72;;;13.29;36.63
42705;BME280;28342;42.594;23.414;2023-04-27T15:48:51;94426.03;;;13.14;37.54
42705;BME280;28342;42.594;23.414;2023-04-27T15:51:17;94431.22;;;13.11;39.50
42705;BME280;28342;42.594;23.414;2023-04-27T15:53:42;94428.72;;;12.85;38.65
42705;BME280;28342;42.594;23.414;2023-04-27T15:56:08;94442.88;;;12.77;37.68
42705;BME280;28342;42.594;23.414;2023-04-27T15:58:33;94438.03;;;12.70;38.93
42705;BME280;28342;42.594;23.414;2023-04-27T16:00:59;94433.09;;;12.60;39.14
42705;BME280;28342;42.594;23.414;2023-04-27T16:03:25;94430.56;;;12.34;38.13
42705;BME280;28342;42.594;23.414;2023-04-27T16:05:50;94425.22;;;12.34;39.09
42705;BME280;28342;42.594;23.414;2023-04-27T16:08:17;94437.41;;;12.44;38.38
42705;BME280;28342;42.594;23.414;2023-04-27T16:10:42;94442.81;;;12.18;37.90
42705;BME280;28342;42.594;23.414;2023-04-27T16:13:08;94444.69;;;12.26;39.53
42705;BME280;28342;42.594;23.414;2023-04-27T16:15:33;94455.53;;;12.04;40.38
42705;BME280;28342;42.594;23.414;2023-04-27T16:17:59;94449.41;;;12.12;39.20
42705;BME280;28342;42.594;23.414;2023-04-27T16:20:25;94448.03;;;11.97;38.79
42705;BME280;28342;42.594;23.414;2023-04-27T16:22:53;94454.47;;;11.79;39.49
42705;BME280;28342;42.594;23.414;2023-04-27T16:25:18;94449.47;;;11.60;39.67
42705;BME280;28342;42.594;23.414;2023-04-27T16:27:44;94458.06;;;11.65;39.19
42705;BME280;28342;42.594;23.414;2023-04-27T16:30:09;94454.78;;;11.60;39.81
42705;BME280;28342;42.594;23.414;2023-04-27T16:32:36;94466.19;;;11.60;40.96
42705;BME280;28342;42.594;23.414;2023-04-27T16:35:02;94469.78;;;11.56;39.90
42705;BME280;28342;42.594;23.414;2023-04-27T16:37:27;94469.47;;;11.66;40.08
42705;BME280;28342;42.594;23.414;2023-04-27T16:39:52;94453.72;;;11.52;40.27
42705;BME280;28342;42.594;23.414;2023-04-27T16:42:18;94471.19;;;11.53;40.57
42705;BME280;28342;42.594;23.414;2023-04-27T16:44:45;94460.59;;;11.36;40.23
42705;BME280;28342;42.594;23.414;2023-04-27T16:47:11;94464.78;;;11.28;40.98
42705;BME280;28342;42.594;23.414;2023-04-27T16:49:36;94474.94;;;11.26;41.23
42705;BME280;28342;42.594;23.414;2023-04-27T16:52:02;94481.66;;;11.32;41.34
42705;BME280;28342;42.594;23.414;2023-04-27T16:54:28;94483.38;;;11.20;41.49
42705;BME280;28342;42.594;23.414;2023-04-27T16:56:55;94503.22;;;11.22;41.78
42705;BME280;28342;42.594;23.414;2023-04-27T16:59:20;94505.22;;;11.17;41.75
42705;BME280;28342;42.594;23.414;2023-04-27T17:01:46;94494.88;;;10.98;42.07
42705;BME280;28342;42.594;23.414;2023-04-27T17:04:11;94503.94;;;10.88;42.36
42705;BME280;28342;42.594;23.414;2023-04-27T17:06:38;94496.25;;;10.87;43.13
42705;BME280;28342;42.594;23.414;2023-04-27T17:09:04;94500.03;;;10.94;42.84
42705;BME280;28342;42.594;23.414;2023-04-27T17:11:30;94505.97;;;10.91;42.63
42705;BME280;28342;42.594;23.414;2023-04-27T17:13:55;94514.25;;;10.98;43.31
42705;BME280;28342;42.594;23.414;2023-04-27T17:16:21;94507.78;;;10.82;43.35
42705;BME280;28342;42.594;23.414;2023-04-27T17:18:47;94514.25;;;10.98;43.76
42705;BME280;28342;42.594;23.414;2023-04-27T17:21:13;94494.63;;;10.68;43.74